createdAt,value
2023-01-21T00:00:59.808Z,90.18
2023-01-21T00:03:26.587Z,90.09
2023-01-21T00:05:53.427Z,90.36
2023-01-21T00:08:20.196Z,90.32
2023-01-21T00:10:46.927Z,90.39
2023-01-21T00:13:13.611Z,90.16
2023-01-21T00:15:40.378Z,90.53
2023-01-21T00:25:43.190Z,91.31
2023-01-21T00:28:09.901Z,91.38
2023-01-21T00:30:37.060Z,91.53
2023-01-21T00:33:04.671Z,91.92
2023-01-21T00:35:31.325Z,91.80
2023-01-21T00:37:58.064Z,91.76
2023-01-21T00:40:25.281Z,91.27
2023-01-21T00:42:51.917Z,91.09
2023-01-21T00:45:18.706Z,90.31
2023-01-21T00:47:45.404Z,90.69
2023-01-21T00:50:12.044Z,90.64
2023-01-21T00:52:38.961Z,90.50
2023-01-21T00:55:08.402Z,90.57
2023-01-21T00:57:35.216Z,90.78
2023-01-21T01:00:02.264Z,90.85
2023-01-21T01:02:29.050Z,90.84
2023-01-21T01:04:55.720Z,90.91
2023-01-21T01:07:22.306Z,90.41
2023-01-21T01:09:48.961Z,90.14
2023-01-21T01:12:15.627Z,89.92
2023-01-21T01:14:42.258Z,90.22
2023-01-21T01:17:09.219Z,90.31
2023-01-21T01:19:35.884Z,90.55
2023-01-21T01:22:02.595Z,90.75
2023-01-21T01:24:29.337Z,91.45
2023-01-21T01:26:56.003Z,92.21
2023-01-21T01:29:22.852Z,93.34
2023-01-21T01:31:49.578Z,93.47
2023-01-21T01:34:16.639Z,93.48
2023-01-21T01:36:43.491Z,93.52
2023-01-21T01:39:10.155Z,94.11
2023-01-21T01:41:36.969Z,94.71
2023-01-21T01:44:05.116Z,95.67
2023-01-21T01:46:36.781Z,95.27
2023-01-21T01:49:19.191Z,95.28
2023-01-21T01:51:58.141Z,96.04
2023-01-21T01:54:39.712Z,96.33
2023-01-21T01:57:10.474Z,97.07
2023-01-21T01:59:37.247Z,96.41
2023-01-21T02:02:07.722Z,96.69
2023-01-21T02:04:44.353Z,97.00
2023-01-21T02:07:11.697Z,97.18
2023-01-21T02:09:38.387Z,96.93
2023-01-21T02:12:06.522Z,97.28
2023-01-21T02:14:42.755Z,98.60
2023-01-21T02:17:40.079Z,98.34
2023-01-21T02:20:37.134Z,98.52
2023-01-21T02:23:41.349Z,97.56
2023-01-21T02:26:07.948Z,97.94
2023-01-21T02:28:40.678Z,97.42
2023-01-21T02:31:40.657Z,97.75
2023-01-21T02:34:29.486Z,97.17
2023-01-21T02:37:21.419Z,97.15
2023-01-21T02:40:22.641Z,97.59
2023-01-21T02:43:08.616Z,97.32
2023-01-21T02:45:47.239Z,96.63
2023-01-21T02:48:35.378Z,96.15
2023-01-21T02:51:02.609Z,95.68
2023-01-21T02:53:31.738Z,95.42
2023-01-21T02:56:20.430Z,94.96
2023-01-21T02:58:56.454Z,94.84
2023-01-21T03:01:49.133Z,94.75
2023-01-21T03:04:52.287Z,94.87
2023-01-21T03:07:41.655Z,95.13
2023-01-21T03:10:20.834Z,94.54
2023-01-21T03:12:56.177Z,94.26
2023-01-21T03:15:48.890Z,94.90
2023-01-21T03:18:22.295Z,94.77
2023-01-21T03:20:58.447Z,94.52
2023-01-21T03:23:33.059Z,94.01
2023-01-21T03:26:00.833Z,93.66
2023-01-21T03:28:33.603Z,93.53
2023-01-21T03:31:06.002Z,93.44
2023-01-21T03:33:37.743Z,93.33
2023-01-21T03:36:13.799Z,93.11
2023-01-21T03:38:49.655Z,93.53
2023-01-21T03:41:34.056Z,93.62
2023-01-21T03:44:01.073Z,94.24
2023-01-21T03:46:27.695Z,94.18
2023-01-21T03:49:21.757Z,94.37
2023-01-21T03:51:55.315Z,94.89
2023-01-21T03:54:22.643Z,95.00
2023-01-21T03:56:49.307Z,95.31
2023-01-21T03:59:16.151Z,95.12
2023-01-21T04:01:42.903Z,95.09
2023-01-21T04:04:09.979Z,95.27
2023-01-21T04:06:39.711Z,95.39
2023-01-21T04:09:07.634Z,95.78
2023-01-21T04:11:34.591Z,95.45
2023-01-21T04:14:01.524Z,96.15
2023-01-21T04:16:28.365Z,95.63
2023-01-21T04:18:55.465Z,95.74
2023-01-21T04:21:22.132Z,95.83
2023-01-21T04:23:48.876Z,96.07
2023-01-21T04:26:16.634Z,95.92
2023-01-21T04:28:43.575Z,96.15
2023-01-21T04:31:10.476Z,96.14
2023-01-21T04:33:37.139Z,96.33
2023-01-21T04:36:04.014Z,96.46
2023-01-21T04:38:30.723Z,96.61
2023-01-21T04:40:57.434Z,96.88
2023-01-21T04:43:24.138Z,97.33
2023-01-21T04:45:50.912Z,97.03
2023-01-21T04:48:17.810Z,97.09
2023-01-21T04:50:46.090Z,97.72
2023-01-21T04:53:12.814Z,97.19
2023-01-21T04:55:39.522Z,97.15
2023-01-21T04:58:06.219Z,97.03
2023-01-21T05:00:32.927Z,97.04
2023-01-21T05:02:59.619Z,96.72
2023-01-21T05:05:26.496Z,97.08
2023-01-21T05:07:54.190Z,97.54
2023-01-21T05:10:21.097Z,97.70
2023-01-21T05:12:48.727Z,97.35
2023-01-21T05:15:15.507Z,96.86
2023-01-21T05:17:42.179Z,96.95
2023-01-21T05:20:09.994Z,96.84
2023-01-21T05:22:36.834Z,96.42
2023-01-21T05:25:04.123Z,96.63
2023-01-21T05:27:30.886Z,97.19
2023-01-21T05:29:57.607Z,97.37
2023-01-21T05:32:24.458Z,97.96
2023-01-21T05:34:51.185Z,97.56
2023-01-21T05:37:17.951Z,97.11
2023-01-21T05:39:44.784Z,97.26
2023-01-21T05:42:11.506Z,97.35
2023-01-21T05:44:38.337Z,97.28
2023-01-21T05:47:05.065Z,97.35
2023-01-21T05:49:32.293Z,97.63
2023-01-21T05:51:59.012Z,97.64
2023-01-21T05:54:25.751Z,98.15
2023-01-21T05:56:52.650Z,98.10
2023-01-21T05:59:19.310Z,98.71
2023-01-21T06:01:45.949Z,98.22
2023-01-21T06:04:12.723Z,98.29
2023-01-21T06:06:40.700Z,98.08
2023-01-21T06:09:07.480Z,98.26
2023-01-21T06:11:34.157Z,98.03
2023-01-21T06:14:00.889Z,98.12
2023-01-21T06:16:27.612Z,98.27
2023-01-21T06:18:54.263Z,98.15
2023-01-21T06:21:20.993Z,97.93
2023-01-21T06:23:47.715Z,97.68
2023-01-21T06:26:14.380Z,97.80
2023-01-21T06:28:41.057Z,98.01
2023-01-21T06:31:07.864Z,98.24
2023-01-21T06:33:34.581Z,98.17
2023-01-21T06:36:01.346Z,98.09
2023-01-21T06:38:28.192Z,97.94
2023-01-21T06:40:54.902Z,97.88
2023-01-21T06:43:21.583Z,98.04
2023-01-21T06:45:48.457Z,98.21
2023-01-21T06:48:15.059Z,98.05
2023-01-21T06:50:41.878Z,97.47
2023-01-21T06:53:08.533Z,97.19
2023-01-21T06:55:35.145Z,97.84
2023-01-21T06:58:01.802Z,97.76
2023-01-21T07:00:28.475Z,98.03
2023-01-21T07:02:59.525Z,97.74
2023-01-21T07:05:27.738Z,97.59
2023-01-21T07:07:55.880Z,97.24
2023-01-21T07:10:24.053Z,97.54
2023-01-21T07:12:50.959Z,97.72
2023-01-21T07:15:18.160Z,97.62
2023-01-21T07:17:45.064Z,97.63
2023-01-21T07:20:14.479Z,97.42
2023-01-21T07:22:41.112Z,97.44
2023-01-21T07:25:08.753Z,97.37
2023-01-21T07:27:35.439Z,97.14
2023-01-21T07:30:02.190Z,97.05
2023-01-21T07:32:28.976Z,97.57
2023-01-21T07:34:55.662Z,97.17
2023-01-21T07:37:22.482Z,97.41
2023-01-21T07:39:49.113Z,97.44
2023-01-21T07:42:15.775Z,97.34
2023-01-21T07:44:42.389Z,97.32
2023-01-21T07:47:10.542Z,97.42
2023-01-21T07:49:37.691Z,98.02
2023-01-21T07:52:04.560Z,98.35
2023-01-21T07:54:31.222Z,98.31
2023-01-21T07:56:58.510Z,98.29
2023-01-21T07:59:25.249Z,98.16
2023-01-21T08:01:51.972Z,97.96
2023-01-21T08:04:18.774Z,97.99
2023-01-21T08:06:45.433Z,97.70
2023-01-21T08:09:12.171Z,97.50
2023-01-21T08:11:38.928Z,97.46
2023-01-21T08:14:05.859Z,97.74
2023-01-21T08:16:32.588Z,97.71
2023-01-21T08:18:59.300Z,98.00
2023-01-21T08:21:26.093Z,97.63
2023-01-21T08:23:52.778Z,97.46
2023-01-21T08:26:19.394Z,98.02
2023-01-21T08:28:46.131Z,97.61
2023-01-21T08:31:13.852Z,97.96
2023-01-21T08:33:40.709Z,97.35
2023-01-21T08:36:08.567Z,97.36
2023-01-21T08:38:35.822Z,97.24
2023-01-21T08:41:02.559Z,97.00
2023-01-21T08:43:29.320Z,96.83
2023-01-21T08:45:58.659Z,97.11
2023-01-21T08:48:25.429Z,97.47
2023-01-21T08:50:52.102Z,97.17
2023-01-21T08:53:18.915Z,97.96
2023-01-21T08:55:45.575Z,97.48
2023-01-21T08:58:12.294Z,97.23
2023-01-21T09:00:39.600Z,96.86
2023-01-21T09:03:06.352Z,97.09
2023-01-21T09:05:33.118Z,97.28
2023-01-21T09:07:59.873Z,96.95
2023-01-21T09:11:04.960Z,97.19
2023-01-21T09:13:34.961Z,97.30
2023-01-21T09:16:02.196Z,97.10
2023-01-21T09:18:28.943Z,96.91
2023-01-21T09:21:00.704Z,97.07
2023-01-21T09:23:28.231Z,97.54
2023-01-21T09:25:56.401Z,97.77
2023-01-21T09:28:23.852Z,97.63
2023-01-21T09:30:57.043Z,97.57
2023-01-21T09:33:23.878Z,98.22
2023-01-21T09:35:57.900Z,98.46
2023-01-21T09:38:25.892Z,98.62
2023-01-21T09:40:53.563Z,98.56
2023-01-21T09:43:38.254Z,98.20
2023-01-21T09:46:10.867Z,98.39
2023-01-21T09:48:44.050Z,98.01
2023-01-21T09:51:19.776Z,97.37
2023-01-21T09:53:55.171Z,97.41
2023-01-21T09:56:57.658Z,97.24
2023-01-21T09:59:37.722Z,97.49
2023-01-21T10:02:16.633Z,97.56
2023-01-21T10:05:06.739Z,96.79
2023-01-21T10:07:45.018Z,96.69
2023-01-21T10:10:28.070Z,96.27
2023-01-21T10:13:14.254Z,96.09
2023-01-21T10:15:53.548Z,95.84
2023-01-21T10:18:23.727Z,95.98
2023-01-21T10:21:19.024Z,95.60
2023-01-21T10:23:52.277Z,95.25
2023-01-21T10:26:18.897Z,95.74
2023-01-21T10:28:52.062Z,95.49
2023-01-21T10:31:24.131Z,95.16
2023-01-21T10:33:50.995Z,95.18
2023-01-21T10:36:45.594Z,95.67
2023-01-21T10:39:29.146Z,96.05
2023-01-21T10:42:34.107Z,95.72
2023-01-21T10:45:21.920Z,95.39
2023-01-21T10:48:00.775Z,95.28
2023-01-21T10:50:54.619Z,95.12
2023-01-21T10:53:38.650Z,95.08
2023-01-21T10:56:14.553Z,95.18
2023-01-21T10:58:54.028Z,94.58
2023-01-21T11:01:37.897Z,94.55
2023-01-21T11:04:16.658Z,94.50
2023-01-21T11:06:45.945Z,94.27
2023-01-21T11:09:14.821Z,94.14
2023-01-21T11:11:42.948Z,94.01
2023-01-21T11:14:10.575Z,93.74
2023-01-21T11:16:45.818Z,93.54
2023-01-21T11:19:18.391Z,93.32
2023-01-21T11:22:04.284Z,93.35
2023-01-21T11:24:52.804Z,92.96
2023-01-21T11:27:32.934Z,93.21
2023-01-21T11:29:59.762Z,93.44
2023-01-21T11:32:28.976Z,92.80
2023-01-21T11:34:58.700Z,92.60
2023-01-21T11:37:27.506Z,92.37
2023-01-21T11:40:00.792Z,92.21
2023-01-21T11:42:27.709Z,92.01
2023-01-21T11:45:01.499Z,92.38
2023-01-21T11:47:54.386Z,91.81
2023-01-21T11:50:37.748Z,92.07
2023-01-21T11:53:07.891Z,91.86
2023-01-21T11:56:03.082Z,91.14
2023-01-21T11:58:33.686Z,91.13
2023-01-21T12:01:25.973Z,91.11
2023-01-21T12:04:02.572Z,90.58
2023-01-21T12:06:33.872Z,90.38
2023-01-21T12:09:07.925Z,89.98
2023-01-21T12:11:34.848Z,90.21
2023-01-21T12:14:43.137Z,89.93
2023-01-21T12:17:31.349Z,90.46
2023-01-21T12:20:18.266Z,90.51
2023-01-21T12:23:05.141Z,90.24
2023-01-21T12:25:44.569Z,90.83
2023-01-21T12:28:29.180Z,91.10
2023-01-21T12:31:01.937Z,90.95
2023-01-21T12:33:31.418Z,90.61
2023-01-21T12:36:20.479Z,90.09
2023-01-21T12:38:55.382Z,89.33
2023-01-21T12:41:28.667Z,89.29
2023-01-21T12:44:14.768Z,88.90
2023-01-21T12:46:46.331Z,89.16
2023-01-21T12:49:45.398Z,89.42
2023-01-21T12:52:21.642Z,89.16
2023-01-21T12:55:23.247Z,89.00
2023-01-21T12:58:08.284Z,89.38
2023-01-21T13:00:39.782Z,89.97
2023-01-21T13:03:15.478Z,90.30
2023-01-21T13:05:57.335Z,89.56
2023-01-21T13:08:50.652Z,89.55
2023-01-21T13:11:28.315Z,90.46
2023-01-21T13:14:07.111Z,90.85
2023-01-21T13:16:41.927Z,90.61
2023-01-21T13:19:12.824Z,91.18
2023-01-21T13:21:43.998Z,90.77
2023-01-21T13:24:31.961Z,90.78
2023-01-21T13:28:00.274Z,90.99
2023-01-21T13:30:29.853Z,90.88
2023-01-21T13:33:02.573Z,90.90
2023-01-21T13:35:46.631Z,90.34
2023-01-21T13:38:41.387Z,90.33
2023-01-21T13:41:41.905Z,91.16
2023-01-21T13:44:26.511Z,91.05
2023-01-21T13:47:07.986Z,91.01
2023-01-21T13:49:48.433Z,90.47
2023-01-21T13:52:33.782Z,90.35
2023-01-21T13:55:15.632Z,90.40
2023-01-21T13:57:55.009Z,89.80
2023-01-21T14:00:50.731Z,90.22
2023-01-21T14:03:36.158Z,90.18
2023-01-21T14:06:30.255Z,89.90
2023-01-21T14:09:38.448Z,89.71
2023-01-21T14:12:09.082Z,89.87
2023-01-21T14:14:57.563Z,89.90
2023-01-21T14:17:53.737Z,90.04
2023-01-21T14:20:35.303Z,90.11
2023-01-21T14:23:40.361Z,90.64
2023-01-21T14:26:33.257Z,91.22
2023-01-21T14:29:06.727Z,91.15
2023-01-21T14:31:40.262Z,90.08
2023-01-21T14:34:10.005Z,89.93
2023-01-21T14:36:53.034Z,90.40
2023-01-21T14:39:19.613Z,90.55
2023-01-21T14:42:04.792Z,91.46
2023-01-21T14:44:57.383Z,90.86
2023-01-21T14:47:30.256Z,91.36
2023-01-21T14:49:59.041Z,91.61
2023-01-21T14:52:41.860Z,91.82
2023-01-21T14:55:28.511Z,91.49
2023-01-21T14:57:57.487Z,91.50
2023-01-21T15:00:29.581Z,90.86
2023-01-21T15:03:02.329Z,90.88
2023-01-21T15:05:41.138Z,91.20
2023-01-21T15:08:17.287Z,90.52
2023-01-21T15:10:52.438Z,90.35
2023-01-21T15:13:28.161Z,90.52
2023-01-21T15:16:19.371Z,90.10
2023-01-21T15:19:08.022Z,90.58
2023-01-21T15:21:43.316Z,90.98
2023-01-21T15:24:23.066Z,91.69
2023-01-21T15:27:28.061Z,91.81
2023-01-21T15:29:54.788Z,91.67
2023-01-21T15:32:44.673Z,91.86
2023-01-21T15:35:25.967Z,91.85
2023-01-21T15:38:09.546Z,92.14
2023-01-21T15:40:51.221Z,92.10
2023-01-21T15:43:33.220Z,92.24
2023-01-21T15:46:26.259Z,92.50
2023-01-21T15:49:27.506Z,92.48
2023-01-21T15:52:20.651Z,92.16
2023-01-21T15:55:00.507Z,92.01
2023-01-21T15:57:48.835Z,92.33
2023-01-21T16:00:34.989Z,92.70
2023-01-21T16:03:23.096Z,92.78
2023-01-21T16:06:04.513Z,92.61
2023-01-21T16:08:49.732Z,92.41
2023-01-21T16:11:22.584Z,92.74
2023-01-21T16:13:57.742Z,92.95
2023-01-21T16:17:02.053Z,92.22
2023-01-21T16:19:35.265Z,92.61
2023-01-21T16:22:07.523Z,92.66
2023-01-21T16:24:40.231Z,92.98
2023-01-21T16:27:27.363Z,92.90
2023-01-21T16:29:58.528Z,93.06
2023-01-21T16:32:26.990Z,92.77
2023-01-21T16:34:53.818Z,92.75
2023-01-21T16:37:24.277Z,92.63
2023-01-21T16:39:54.879Z,92.86
2023-01-21T16:42:44.293Z,92.60
2023-01-21T16:45:19.416Z,92.71
2023-01-21T16:47:53.957Z,92.80
2023-01-21T16:50:24.758Z,93.01
2023-01-21T16:52:53.688Z,92.90
2023-01-21T16:55:26.047Z,93.28
2023-01-21T16:57:54.974Z,93.36
2023-01-21T17:00:32.490Z,93.14
2023-01-21T17:03:00.459Z,93.06
2023-01-21T17:05:33.312Z,93.35
2023-01-21T17:08:03.523Z,93.21
2023-01-21T17:10:35.598Z,93.57
2023-01-21T17:13:05.835Z,93.47
2023-01-21T17:15:41.648Z,94.05
2023-01-21T17:18:19.839Z,93.69
2023-01-21T17:20:51.422Z,93.39
2023-01-21T17:23:22.799Z,94.09
2023-01-21T17:25:55.976Z,93.83
2023-01-21T17:28:29.014Z,93.90
2023-01-21T17:31:29.445Z,94.32
2023-01-21T17:34:15.951Z,94.15
2023-01-21T17:36:44.763Z,93.77
2023-01-21T17:39:12.603Z,94.10
2023-01-21T17:41:41.308Z,93.81
2023-01-21T17:44:18.583Z,93.83
2023-01-21T17:46:52.282Z,93.82
2023-01-21T17:49:22.060Z,93.77
2023-01-21T17:51:49.986Z,93.72
2023-01-21T17:54:25.968Z,94.44
2023-01-21T17:57:00.200Z,94.53
2023-01-21T17:59:34.245Z,94.97
2023-01-21T18:02:02.936Z,94.89
2023-01-21T18:04:29.851Z,94.23
2023-01-21T18:06:57.704Z,95.01
2023-01-21T18:09:25.815Z,94.69
2023-01-21T18:11:54.750Z,94.87
2023-01-21T18:14:24.372Z,94.39
2023-01-21T18:16:53.588Z,94.79
2023-01-21T18:19:28.434Z,94.00
2023-01-21T18:21:56.002Z,93.84
2023-01-21T18:24:22.953Z,94.43
2023-01-21T18:26:49.947Z,94.03
2023-01-21T18:29:18.275Z,94.01
2023-01-21T18:31:46.015Z,93.62
2023-01-21T18:34:12.671Z,93.15
2023-01-21T18:36:40.741Z,93.02
2023-01-21T18:39:16.474Z,93.66
2023-01-21T18:41:43.463Z,93.64
2023-01-21T18:44:10.415Z,93.36
2023-01-21T18:46:42.140Z,93.93
2023-01-21T18:49:17.088Z,94.06
2023-01-21T18:51:44.457Z,94.95
2023-01-21T18:54:13.044Z,95.06
2023-01-21T18:56:40.370Z,96.16
2023-01-21T18:59:13.557Z,97.01
2023-01-21T19:01:41.071Z,98.04
2023-01-21T19:04:09.723Z,99.37
2023-01-21T19:06:36.843Z,100.00
2023-01-21T19:09:03.922Z,100.00
2023-01-21T19:11:30.546Z,100.00
2023-01-21T19:13:57.103Z,100.00
2023-01-21T19:16:24.031Z,100.00
2023-01-21T19:18:50.695Z,100.00
2023-01-21T19:21:17.419Z,100.00
2023-01-21T19:23:44.097Z,100.00
2023-01-21T19:26:13.824Z,100.00
2023-01-21T19:28:40.449Z,100.00
2023-01-21T19:31:07.613Z,100.00
2023-01-21T19:33:34.379Z,100.00
2023-01-21T19:36:11.546Z,100.00
2023-01-21T19:38:38.378Z,100.00
2023-01-21T19:41:07.753Z,100.00
2023-01-21T19:43:34.309Z,100.00
2023-01-21T19:46:01.014Z,100.00
2023-01-21T19:48:29.380Z,100.00
2023-01-21T19:50:56.023Z,100.00
2023-01-21T19:53:23.707Z,100.00
2023-01-21T19:55:51.040Z,100.00
2023-01-21T19:58:23.915Z,100.00
2023-01-21T20:00:52.717Z,100.00
2023-01-21T20:03:22.149Z,100.00
2023-01-21T20:05:49.878Z,100.00
2023-01-21T20:08:20.679Z,100.00
2023-01-21T20:10:47.542Z,100.00
2023-01-21T20:13:15.588Z,100.00
2023-01-21T20:15:44.860Z,100.00
2023-01-21T20:18:20.328Z,100.00
2023-01-21T20:20:47.034Z,100.00
2023-01-21T20:23:16.221Z,100.00
2023-01-21T20:25:45.467Z,100.00
2023-01-21T20:28:36.236Z,100.00
2023-01-21T20:31:06.545Z,100.00
2023-01-21T20:33:34.363Z,100.00
2023-01-21T20:36:05.692Z,100.00
2023-01-21T20:38:34.955Z,100.00
2023-01-21T20:41:02.949Z,100.00
2023-01-21T20:43:30.051Z,100.00
2023-01-21T20:46:01.768Z,100.00
2023-01-21T20:48:35.341Z,100.00
2023-01-21T20:51:02.614Z,100.00
2023-01-21T20:53:30.861Z,100.00
2023-01-21T20:56:00.466Z,100.00
2023-01-21T20:58:28.183Z,100.00
2023-01-21T21:00:54.918Z,100.00
2023-01-21T21:03:23.699Z,100.00
2023-01-21T21:05:50.356Z,100.00
2023-01-21T21:08:20.140Z,100.00
2023-01-21T21:10:47.915Z,100.00
2023-01-21T21:13:14.570Z,100.00
2023-01-21T21:15:42.084Z,100.00
2023-01-21T21:18:12.988Z,100.00
2023-01-21T21:20:40.186Z,100.00
2023-01-21T21:23:07.969Z,100.00
2023-01-21T21:25:40.905Z,100.00
2023-01-21T21:28:07.712Z,100.00
2023-01-21T21:30:34.677Z,100.00
2023-01-21T21:33:02.183Z,100.00
2023-01-21T21:35:35.772Z,100.00
2023-01-21T21:38:08.290Z,100.00
2023-01-21T21:40:35.827Z,100.00
2023-01-21T21:43:20.989Z,100.00
2023-01-21T21:46:06.443Z,100.00
2023-01-21T21:48:39.225Z,100.00
2023-01-21T21:51:18.724Z,100.00
2023-01-21T21:53:46.931Z,100.00
2023-01-21T21:56:16.265Z,100.00
2023-01-21T21:58:42.914Z,100.00
2023-01-21T22:01:24.560Z,100.00
2023-01-21T22:03:54.778Z,100.00
2023-01-21T22:06:22.456Z,100.00
2023-01-21T22:08:49.585Z,100.00
2023-01-21T22:11:20.791Z,100.00
2023-01-21T22:13:50.289Z,100.00
2023-01-21T22:16:28.046Z,100.00
2023-01-21T22:18:56.698Z,100.00
2023-01-21T22:21:29.476Z,100.00
2023-01-21T22:23:56.338Z,100.00
2023-01-21T22:26:25.097Z,100.00
2023-01-21T22:28:52.448Z,100.00
2023-01-21T22:31:22.343Z,100.00
2023-01-21T22:33:49.654Z,100.00
2023-01-21T22:36:18.789Z,100.00
2023-01-21T22:38:46.128Z,100.00
2023-01-21T22:41:14.731Z,100.00
2023-01-21T22:43:44.923Z,100.00
2023-01-21T22:46:14.359Z,100.00
2023-01-21T22:48:42.330Z,100.00
2023-01-21T22:51:12.870Z,100.00
2023-01-21T22:53:43.993Z,100.00
2023-01-21T22:56:12.784Z,100.00
2023-01-21T22:58:39.544Z,100.00
2023-01-21T23:01:06.515Z,100.00
2023-01-21T23:03:33.336Z,100.00
2023-01-21T23:06:08.261Z,100.00
2023-01-21T23:08:37.680Z,100.00
2023-01-21T23:11:06.287Z,100.00
2023-01-21T23:13:34.196Z,100.00
2023-01-21T23:16:01.896Z,100.00
2023-01-21T23:18:29.337Z,100.00
2023-01-21T23:20:56.792Z,100.00
2023-01-21T23:23:24.804Z,100.00
2023-01-21T23:25:51.736Z,100.00
2023-01-21T23:28:18.384Z,100.00
2023-01-21T23:30:45.131Z,100.00
2023-01-21T23:33:12.199Z,100.00
2023-01-21T23:35:38.914Z,100.00
2023-01-21T23:38:05.517Z,100.00
2023-01-21T23:40:32.130Z,100.00
2023-01-21T23:42:58.781Z,100.00
2023-01-21T23:45:25.502Z,100.00
2023-01-21T23:47:52.112Z,100.00
2023-01-21T23:50:18.993Z,100.00
2023-01-21T23:52:45.753Z,100.00
2023-01-21T23:55:12.853Z,100.00
2023-01-21T23:57:39.461Z,100.00
